Pottstown, Pennsylvania
Current Conditions -  °F | °C
As of 6:54 PM on Sunday 25 Jan 2015 (Local Time) from KPTW Reporting Station
Overcast Overcast  
Wind Chill: 35°   Ceiling: 4000
Heat Index: 35°   Visibility: 10mi
Dew Point: 31°   Wind: 0mph
Humidity: 85%   Direction: NA
Pressure: 29.9"   Gusts: NA
Location:  40.25°N, 75.65°W
Report Text: KPTW 252354Z AUTO 00000KT 10SM BKN040 OVC060 02/M01 A2990 RMK AO2 RAB06E31 SLP125 P0000 60000 T00171006 10044 20017 53027
Loading
Personal Weather Stations






























Interactive Weather Map New forecast layout! Learn more

10-Day Weather Forecast

Advertisements
Track Severe Weather on mobile